createdAt,value
2018-06-12T00:00:04.346Z,19.32
2018-06-12T00:01:04.344Z,19.31
2018-06-12T00:02:04.342Z,19.27
2018-06-12T00:03:04.338Z,19.25
2018-06-12T00:04:04.337Z,19.32
2018-06-12T00:05:04.337Z,19.23
2018-06-12T00:06:04.345Z,19.20
2018-06-12T00:07:04.340Z,19.17
2018-06-12T00:08:04.342Z,19.17
2018-06-12T00:09:04.337Z,19.20
2018-06-12T00:10:04.333Z,19.27
2018-06-12T00:11:04.330Z,19.20
2018-06-12T00:12:04.335Z,19.05
2018-06-12T00:13:04.340Z,19.01
2018-06-12T00:14:04.329Z,19.02
2018-06-12T00:15:04.327Z,18.99
2018-06-12T00:16:04.324Z,19.02
2018-06-12T00:17:04.326Z,19.06
2018-06-12T00:18:04.329Z,19.01
2018-06-12T00:19:04.329Z,18.99
2018-06-12T00:20:04.327Z,18.97
2018-06-12T00:21:04.328Z,18.97
2018-06-12T00:22:04.320Z,18.99
2018-06-12T00:23:04.322Z,19.06
2018-06-12T00:24:04.317Z,18.96
2018-06-12T00:25:04.317Z,19.01
2018-06-12T00:26:04.320Z,18.89
2018-06-12T00:27:04.318Z,18.91
2018-06-12T00:28:04.314Z,18.93
2018-06-12T00:29:04.313Z,18.90
2018-06-12T00:30:04.316Z,18.84
2018-06-12T00:31:04.315Z,18.78
2018-06-12T00:32:04.314Z,18.87
2018-06-12T00:33:04.314Z,18.87
2018-06-12T00:34:04.311Z,18.76
2018-06-12T00:35:04.306Z,18.79
2018-06-12T00:36:04.304Z,18.82
2018-06-12T00:37:04.304Z,18.91
2018-06-12T00:38:04.307Z,18.83
2018-06-12T00:39:04.306Z,18.83
2018-06-12T00:40:04.304Z,18.78
2018-06-12T00:41:04.303Z,18.84
2018-06-12T00:42:04.300Z,18.83
2018-06-12T00:43:04.298Z,18.83
2018-06-12T00:44:04.299Z,18.79
2018-06-12T00:45:04.299Z,18.75
2018-06-12T00:46:04.294Z,18.71
2018-06-12T00:47:04.290Z,18.79
2018-06-12T00:48:04.289Z,18.82
2018-06-12T00:49:04.290Z,18.68
2018-06-12T00:50:04.292Z,18.71
2018-06-12T00:51:04.292Z,18.72
2018-06-12T00:52:04.289Z,18.78
2018-06-12T00:53:04.288Z,18.71
2018-06-12T00:54:04.282Z,18.72
2018-06-12T00:55:04.280Z,18.59
2018-06-12T00:56:04.283Z,18.60
2018-06-12T00:57:04.278Z,18.66
2018-06-12T00:58:04.282Z,18.69
2018-06-12T00:59:04.280Z,18.66
2018-06-12T01:00:04.273Z,18.64
2018-06-12T01:01:04.275Z,18.60
2018-06-12T01:02:04.282Z,18.51
2018-06-12T01:03:04.275Z,18.57
2018-06-12T01:04:04.273Z,18.62
2018-06-12T01:05:04.271Z,18.64
2018-06-12T01:06:04.267Z,18.53
2018-06-12T01:07:04.263Z,18.51
2018-06-12T01:08:04.262Z,18.51
2018-06-12T01:09:04.265Z,18.47
2018-06-12T01:10:04.264Z,18.47
2018-06-12T01:11:04.261Z,18.39
2018-06-12T01:12:04.261Z,18.50
2018-06-12T01:13:04.260Z,18.32
2018-06-12T01:14:04.253Z,18.29
2018-06-12T01:15:04.252Z,18.32
2018-06-12T01:16:04.255Z,18.39
2018-06-12T01:17:04.255Z,18.28
2018-06-12T01:18:04.248Z,18.38
2018-06-12T01:19:04.252Z,18.32
2018-06-12T01:20:04.244Z,18.31
2018-06-12T01:21:04.245Z,18.31
2018-06-12T01:22:04.246Z,18.35
2018-06-12T01:23:04.270Z,18.32
2018-06-12T01:24:04.243Z,18.26
2018-06-12T01:25:04.244Z,18.28
2018-06-12T01:26:04.238Z,18.25
2018-06-12T01:27:04.234Z,18.29
2018-06-12T01:28:04.235Z,18.23
2018-06-12T01:29:04.232Z,18.26
2018-06-12T01:30:04.236Z,18.36
2018-06-12T01:31:04.235Z,18.38
2018-06-12T01:32:04.227Z,18.26
2018-06-12T01:33:04.226Z,18.26
2018-06-12T01:34:04.231Z,18.21
2018-06-12T01:35:04.227Z,18.20
2018-06-12T01:36:04.225Z,18.20
2018-06-12T01:37:04.225Z,18.26
2018-06-12T01:38:04.218Z,18.21
2018-06-12T01:39:04.216Z,18.25
2018-06-12T01:40:04.216Z,18.21
2018-06-12T01:41:04.214Z,18.21
2018-06-12T01:42:04.219Z,18.21
2018-06-12T01:43:04.214Z,18.20
2018-06-12T01:44:04.214Z,18.19
2018-06-12T01:45:04.212Z,18.23
2018-06-12T01:46:04.206Z,18.21
2018-06-12T01:47:04.206Z,18.20
2018-06-12T01:48:04.208Z,18.21
2018-06-12T01:49:04.207Z,18.05
2018-06-12T01:50:04.200Z,18.17
2018-06-12T01:51:04.200Z,18.13
2018-06-12T01:52:04.196Z,18.16
2018-06-12T01:53:04.195Z,18.13
2018-06-12T01:54:04.199Z,18.19
2018-06-12T01:55:04.196Z,18.07
2018-06-12T01:56:04.199Z,18.20
2018-06-12T01:57:04.193Z,18.17
2018-06-12T01:58:04.187Z,18.17
2018-06-12T01:59:04.185Z,18.13
2018-06-12T02:00:04.186Z,18.17
2018-06-12T02:01:04.183Z,18.09
2018-06-12T02:02:04.185Z,18.09
2018-06-12T02:03:04.182Z,18.07
2018-06-12T02:04:04.176Z,18.09
2018-06-12T02:05:04.175Z,18.11
2018-06-12T02:06:04.179Z,18.13
2018-06-12T02:07:04.175Z,18.10
2018-06-12T02:08:04.177Z,18.10
2018-06-12T02:09:04.174Z,18.07
2018-06-12T02:13:31.250Z,17.96
2018-06-12T02:14:31.284Z,17.92
2018-06-12T02:15:31.242Z,17.89
2018-06-12T02:16:31.239Z,17.86
2018-06-12T02:17:31.238Z,17.74
2018-06-12T02:18:31.240Z,17.83
2018-06-12T02:19:31.238Z,17.77
2018-06-12T02:20:31.232Z,17.81
2018-06-12T02:21:31.231Z,17.80
2018-06-12T02:22:31.234Z,17.80
2018-06-12T02:23:31.231Z,17.81
2018-06-12T02:24:31.230Z,17.74
2018-06-12T02:25:31.228Z,17.70
2018-06-12T02:26:31.222Z,17.70
2018-06-12T02:27:31.220Z,17.71
2018-06-12T02:28:31.221Z,17.62
2018-06-12T02:29:31.216Z,17.62
2018-06-12T02:30:31.220Z,17.65
2018-06-12T02:31:31.218Z,17.62
2018-06-12T02:32:31.214Z,17.65
2018-06-12T02:33:31.213Z,17.63
2018-06-12T02:34:31.207Z,17.65
2018-06-12T02:35:31.204Z,17.57
2018-06-12T02:36:31.210Z,17.65
2018-06-12T02:37:31.205Z,17.57
2018-06-12T02:38:31.201Z,17.65
2018-06-12T02:39:31.197Z,17.81
2018-06-12T02:40:31.195Z,17.80
2018-06-12T02:41:31.195Z,17.74
2018-06-12T02:42:31.196Z,17.80
2018-06-12T02:43:31.194Z,17.60
2018-06-12T02:44:31.206Z,17.58
2018-06-12T02:45:31.191Z,17.60
2018-06-12T02:46:31.184Z,17.57
2018-06-12T02:47:31.184Z,17.73
2018-06-12T02:48:31.180Z,17.62
2018-06-12T02:49:31.178Z,17.62
2018-06-12T02:50:31.181Z,17.58
2018-06-12T02:51:31.178Z,17.63
2018-06-12T02:52:31.172Z,17.55
2018-06-12T02:53:31.170Z,17.60
2018-06-12T02:54:31.173Z,17.57
2018-06-12T02:55:31.179Z,17.55
2018-06-12T02:56:31.172Z,17.60
2018-06-12T02:57:31.169Z,17.57
2018-06-12T02:58:31.161Z,17.54
2018-06-12T02:59:31.159Z,17.45
2018-06-12T03:00:31.158Z,17.55
2018-06-12T03:01:31.163Z,17.55
2018-06-12T03:02:31.158Z,17.54
2018-06-12T03:03:31.160Z,17.57
2018-06-12T03:04:31.152Z,17.57
2018-06-12T03:05:31.156Z,17.51
2018-06-12T03:06:31.145Z,17.53
2018-06-12T03:07:31.142Z,17.39
2018-06-12T03:08:31.146Z,17.35
2018-06-12T03:09:31.170Z,17.39
2018-06-12T03:10:31.145Z,17.40
2018-06-12T03:11:31.133Z,17.53
2018-06-12T03:12:31.146Z,17.38
2018-06-12T03:13:31.130Z,17.39
2018-06-12T03:14:31.139Z,17.33
2018-06-12T03:15:31.135Z,17.35
2018-06-12T03:16:31.134Z,17.36
2018-06-12T03:17:31.125Z,17.39
2018-06-12T03:18:31.121Z,17.38
2018-06-12T03:19:31.117Z,17.28
2018-06-12T03:20:31.114Z,17.30
2018-06-12T03:21:31.113Z,17.32
2018-06-12T03:22:31.115Z,17.51
2018-06-12T03:23:31.113Z,17.47
2018-06-12T03:24:31.104Z,17.36
2018-06-12T03:25:31.105Z,17.40
2018-06-12T03:26:31.108Z,17.39
2018-06-12T03:27:31.104Z,17.35
2018-06-12T03:28:31.102Z,17.38
2018-06-12T03:29:31.101Z,17.42
2018-06-12T03:30:31.100Z,17.35
2018-06-12T03:31:31.091Z,17.32
2018-06-12T03:32:31.088Z,17.38
2018-06-12T03:33:31.086Z,17.36
2018-06-12T03:34:31.088Z,17.30
2018-06-12T03:35:31.086Z,17.32
2018-06-12T03:36:31.085Z,17.36
2018-06-12T03:37:31.083Z,17.35
2018-06-12T03:38:31.076Z,17.27
2018-06-12T03:39:31.080Z,17.24
2018-06-12T03:40:31.076Z,17.27
2018-06-12T03:41:31.074Z,17.27
2018-06-12T03:42:31.066Z,17.36
2018-06-12T03:43:31.066Z,17.36
2018-06-12T03:44:31.062Z,17.33
2018-06-12T03:45:31.059Z,17.36
2018-06-12T03:46:31.062Z,17.24
2018-06-12T03:47:31.059Z,17.27
2018-06-12T03:48:31.058Z,17.27
2018-06-12T03:49:31.056Z,17.22
2018-06-12T03:50:31.049Z,17.33
2018-06-12T03:51:31.046Z,17.25
2018-06-12T03:52:31.044Z,17.21
2018-06-12T03:53:31.043Z,17.21
2018-06-12T03:54:31.046Z,17.17
2018-06-12T03:55:31.042Z,17.20
2018-06-12T03:56:31.035Z,17.17
2018-06-12T03:57:31.043Z,17.14
2018-06-12T03:58:31.036Z,17.18
2018-06-12T03:59:31.034Z,17.22
2018-06-12T04:00:31.031Z,17.17
2018-06-12T04:01:31.030Z,17.18
2018-06-12T04:02:31.023Z,17.14
2018-06-12T04:03:31.020Z,17.24
2018-06-12T04:04:31.018Z,17.22
2018-06-12T04:05:31.015Z,17.10
2018-06-12T04:06:31.018Z,17.24
2018-06-12T04:07:31.015Z,17.09
2018-06-12T04:08:31.014Z,17.09
2018-06-12T04:09:31.018Z,17.14
2018-06-12T04:10:31.005Z,17.09
2018-06-12T04:11:31.002Z,17.22
2018-06-12T04:12:31.005Z,17.22
2018-06-12T04:13:31.003Z,17.24
2018-06-12T04:14:30.996Z,17.21
2018-06-12T04:15:30.992Z,17.14
2018-06-12T04:16:30.992Z,17.24
2018-06-12T04:17:30.989Z,17.20
2018-06-12T04:18:30.990Z,17.20
2018-06-12T04:19:30.988Z,17.20
2018-06-12T04:20:31.007Z,17.14
2018-06-12T04:21:30.984Z,17.22
2018-06-12T04:22:30.978Z,17.25
2018-06-12T04:23:30.976Z,17.18
2018-06-12T04:24:30.972Z,17.28
2018-06-12T04:25:30.971Z,17.28
2018-06-12T04:26:30.973Z,17.32
2018-06-12T04:27:30.971Z,17.28
2018-06-12T04:28:30.964Z,17.33
2018-06-12T04:29:30.961Z,17.36
2018-06-12T04:30:30.965Z,17.39
2018-06-12T04:31:30.961Z,17.40
2018-06-12T04:32:30.960Z,17.45
2018-06-12T04:33:30.959Z,17.45
2018-06-12T04:34:30.952Z,17.58
2018-06-12T04:35:30.951Z,17.51
2018-06-12T04:36:30.947Z,17.51
2018-06-12T04:37:30.947Z,17.54
2018-06-12T04:38:30.949Z,17.40
2018-06-12T04:39:30.946Z,17.42
2018-06-12T04:40:30.943Z,17.36
2018-06-12T04:41:30.942Z,17.39
2018-06-12T04:42:30.936Z,17.39
2018-06-12T04:43:30.933Z,17.42
2018-06-12T04:44:30.935Z,17.32
2018-06-12T04:45:30.939Z,17.27
2018-06-12T04:46:30.928Z,17.24
2018-06-12T04:47:30.925Z,17.21
2018-06-12T04:48:30.924Z,17.21
2018-06-12T04:49:30.922Z,17.27
2018-06-12T04:50:30.925Z,17.25
2018-06-12T04:51:30.922Z,17.27
2018-06-12T04:52:30.920Z,17.33
2018-06-12T04:53:30.921Z,17.36
2018-06-12T04:54:30.943Z,17.36
2018-06-12T04:55:30.908Z,17.40
2018-06-12T04:56:30.907Z,17.43
2018-06-12T04:57:30.905Z,17.33
2018-06-12T04:58:30.910Z,17.36
2018-06-12T04:59:30.903Z,17.32
2018-06-12T05:00:30.900Z,17.39
2018-06-12T05:01:30.896Z,17.36
2018-06-12T05:02:30.899Z,17.38
2018-06-12T05:03:30.896Z,17.49
2018-06-12T05:04:30.896Z,17.46
2018-06-12T05:05:30.893Z,17.43
2018-06-12T05:06:30.888Z,17.42
2018-06-12T05:07:30.888Z,17.51
2018-06-12T05:08:30.882Z,17.58
2018-06-12T05:09:30.880Z,17.49
2018-06-12T05:10:30.892Z,17.51
2018-06-12T05:11:30.882Z,17.55
2018-06-12T05:12:30.880Z,17.58
2018-06-12T05:13:30.877Z,17.54
2018-06-12T05:14:30.871Z,17.60
2018-06-12T05:15:30.868Z,17.62
2018-06-12T05:16:30.871Z,17.55
2018-06-12T05:17:30.869Z,17.55
2018-06-12T05:18:30.865Z,17.76
2018-06-12T05:19:30.862Z,17.65
2018-06-12T05:20:30.861Z,17.68
2018-06-12T05:21:30.859Z,17.79
2018-06-12T05:22:30.861Z,17.95
2018-06-12T05:23:30.860Z,18.21
2018-06-12T05:24:30.857Z,18.53
2018-06-12T05:25:30.914Z,18.97
2018-06-12T05:26:30.850Z,19.25
2018-06-12T05:27:30.848Z,19.02
2018-06-12T05:28:30.847Z,18.94
2018-06-12T05:29:30.846Z,18.91
2018-06-12T05:30:30.851Z,18.96
2018-06-12T05:31:30.849Z,18.91
2018-06-12T05:32:30.843Z,18.96
2018-06-12T05:33:30.841Z,18.99
2018-06-12T05:34:30.846Z,18.99
2018-06-12T05:35:30.846Z,18.91
2018-06-12T05:36:30.843Z,18.96
2018-06-12T05:37:30.843Z,18.97
2018-06-12T05:38:30.840Z,18.96
2018-06-12T05:39:30.837Z,18.99
2018-06-12T05:40:30.837Z,19.09
2018-06-12T05:41:30.837Z,19.10
2018-06-12T05:42:30.841Z,19.05
2018-06-12T05:43:30.843Z,18.96
2018-06-12T05:44:30.845Z,18.94
2018-06-12T05:45:30.841Z,18.96
2018-06-12T05:46:30.836Z,18.99
2018-06-12T05:47:30.834Z,18.96
2018-06-12T05:48:30.839Z,19.05
2018-06-12T05:49:30.841Z,18.96
2018-06-12T05:50:30.833Z,18.97
2018-06-12T05:51:30.832Z,18.97
2018-06-12T05:52:30.832Z,18.96
2018-06-12T05:53:30.835Z,18.89
2018-06-12T05:54:30.836Z,18.75
2018-06-12T05:55:30.835Z,18.66
2018-06-12T05:56:30.836Z,18.57
2018-06-12T05:57:30.836Z,18.66
2018-06-12T05:58:30.830Z,18.50
2018-06-12T05:59:30.830Z,18.53
2018-06-12T06:00:30.830Z,18.60
2018-06-12T06:01:30.831Z,18.56
2018-06-12T06:02:30.834Z,18.60
2018-06-12T06:03:30.834Z,18.56
2018-06-12T06:04:30.827Z,18.64
2018-06-12T06:05:30.827Z,18.65
2018-06-12T06:06:30.833Z,18.54
2018-06-12T06:07:30.831Z,18.68
2018-06-12T06:08:30.832Z,18.71
2018-06-12T06:09:30.833Z,18.68
2018-06-12T06:10:30.826Z,18.62
2018-06-12T06:11:30.824Z,18.62
2018-06-12T06:12:30.823Z,18.71
2018-06-12T06:13:30.823Z,18.78
2018-06-12T06:14:30.827Z,18.74
2018-06-12T06:15:30.829Z,18.69
2018-06-12T06:16:30.826Z,18.79
2018-06-12T06:17:30.827Z,19.01
2018-06-12T06:18:30.822Z,19.07
2018-06-12T06:19:30.820Z,19.01
2018-06-12T06:20:30.826Z,19.01
2018-06-12T06:21:30.825Z,19.01
2018-06-12T06:22:30.885Z,18.97
2018-06-12T06:23:30.820Z,18.87
2018-06-12T06:24:30.819Z,18.83
2018-06-12T06:25:30.819Z,18.75
2018-06-12T06:26:30.823Z,18.86
2018-06-12T06:27:30.824Z,18.87
2018-06-12T06:28:30.829Z,18.89
2018-06-12T06:29:30.822Z,18.76
2018-06-12T06:30:30.818Z,18.78
2018-06-12T06:31:30.817Z,18.71
2018-06-12T06:32:30.817Z,18.69
2018-06-12T06:33:30.817Z,18.72
2018-06-12T06:34:30.823Z,18.65
2018-06-12T06:35:30.821Z,18.64
2018-06-12T06:36:30.817Z,18.62
2018-06-12T06:37:30.821Z,18.66
2018-06-12T06:38:30.821Z,18.60
2018-06-12T06:39:30.821Z,18.65
2018-06-12T06:40:30.822Z,18.66
2018-06-12T06:41:30.823Z,18.71
2018-06-12T06:42:30.815Z,18.83
2018-06-12T06:43:30.814Z,18.89
2018-06-12T06:44:30.814Z,18.89
2018-06-12T06:45:30.816Z,18.97
2018-06-12T06:46:30.818Z,18.89
2018-06-12T06:47:30.817Z,18.87
2018-06-12T06:48:30.818Z,18.87
2018-06-12T06:49:30.817Z,18.89
2018-06-12T06:50:30.812Z,18.78
2018-06-12T06:51:30.811Z,18.76
2018-06-12T06:52:30.817Z,18.82
2018-06-12T06:53:30.856Z,18.72
2018-06-12T06:54:30.811Z,18.82
2018-06-12T06:55:30.812Z,18.90
2018-06-12T06:56:30.810Z,18.86
2018-06-12T06:57:30.809Z,18.84
2018-06-12T06:58:30.814Z,18.79
2018-06-12T06:59:30.813Z,18.89
2018-06-12T07:00:30.814Z,18.94
2018-06-12T07:01:30.813Z,18.99
2018-06-12T07:02:30.808Z,19.09
2018-06-12T07:03:30.809Z,19.01
2018-06-12T07:04:30.810Z,18.99
2018-06-12T07:05:30.807Z,18.84
2018-06-12T07:06:30.813Z,18.96
2018-06-12T07:07:30.811Z,19.02
2018-06-12T07:08:30.808Z,18.97
2018-06-12T07:09:30.805Z,19.01
2018-06-12T07:10:30.812Z,18.86
2018-06-12T07:11:30.810Z,18.84
2018-06-12T07:12:30.809Z,18.93
2018-06-12T07:13:30.811Z,18.94
2018-06-12T07:14:30.805Z,18.99
2018-06-12T07:15:30.804Z,19.01
2018-06-12T07:16:30.804Z,19.16
2018-06-12T07:17:30.805Z,19.23
2018-06-12T07:18:30.808Z,19.30
2018-06-12T07:19:30.808Z,19.30
2018-06-12T07:20:30.807Z,19.40
2018-06-12T07:21:30.809Z,19.38
2018-06-12T07:22:30.803Z,19.34
2018-06-12T07:23:30.803Z,19.28
2018-06-12T07:24:30.810Z,19.15
2018-06-12T07:25:30.808Z,19.23
2018-06-12T07:26:30.803Z,19.20
2018-06-12T07:27:30.802Z,19.20
2018-06-12T07:28:30.802Z,19.30
2018-06-12T07:29:30.807Z,19.27
2018-06-12T07:30:30.807Z,19.30
2018-06-12T07:31:30.806Z,19.20
2018-06-12T07:32:30.808Z,19.30
2018-06-12T07:33:30.808Z,19.45
2018-06-12T07:34:30.803Z,19.30
2018-06-12T07:35:30.802Z,19.34
2018-06-12T07:36:30.803Z,19.31
2018-06-12T07:37:30.870Z,19.46
2018-06-12T07:38:30.811Z,19.53
2018-06-12T07:39:30.808Z,19.65
2018-06-12T07:40:30.804Z,19.68
2018-06-12T07:41:30.804Z,19.72
2018-06-12T07:42:30.809Z,19.80
2018-06-12T07:43:30.843Z,19.47
2018-06-12T07:44:30.811Z,19.42
2018-06-12T07:45:30.811Z,19.53
2018-06-12T07:46:30.807Z,19.78
2018-06-12T07:47:30.808Z,19.55
2018-06-12T07:48:30.810Z,19.76
2018-06-12T07:49:30.809Z,19.89
2018-06-12T07:50:30.814Z,19.94
2018-06-12T07:51:30.815Z,19.90
2018-06-12T07:52:30.814Z,20.01
2018-06-12T07:53:30.816Z,20.13
2018-06-12T07:54:30.814Z,20.16
2018-06-12T07:55:30.816Z,20.41
2018-06-12T07:56:30.822Z,20.30
2018-06-12T07:57:30.820Z,20.34
2018-06-12T07:58:30.820Z,20.41
2018-06-12T07:59:30.818Z,20.40
2018-06-12T08:00:30.822Z,20.37
2018-06-12T08:01:30.820Z,19.78
2018-06-12T08:02:30.828Z,19.92
2018-06-12T08:03:30.830Z,19.95
2018-06-12T08:04:30.830Z,20.19
2018-06-12T08:05:30.832Z,20.46
2018-06-12T08:06:30.827Z,20.35
2018-06-12T08:07:30.831Z,20.50
2018-06-12T08:08:30.830Z,20.31
2018-06-12T08:09:30.832Z,20.38
2018-06-12T08:10:30.838Z,20.44
2018-06-12T08:11:30.839Z,20.60
2018-06-12T08:12:30.836Z,20.82
2018-06-12T08:13:30.838Z,20.87
2018-06-12T08:14:30.844Z,20.96
2018-06-12T08:15:30.846Z,20.83
2018-06-12T08:16:30.848Z,20.85
2018-06-12T08:17:30.850Z,20.82
2018-06-12T08:18:30.863Z,20.71
2018-06-12T08:19:30.850Z,20.87
2018-06-12T08:20:30.858Z,20.73
2018-06-12T08:21:30.853Z,20.78
2018-06-12T08:22:30.860Z,21.22
2018-06-12T08:23:30.861Z,21.71
2018-06-12T08:24:30.863Z,21.85
2018-06-12T08:25:30.867Z,21.93
2018-06-12T08:26:30.865Z,22.04
2018-06-12T08:27:30.865Z,21.91
2018-06-12T08:28:30.873Z,21.83
2018-06-12T08:29:30.875Z,21.93
2018-06-12T08:30:30.936Z,21.48
2018-06-12T08:31:30.875Z,21.55
2018-06-12T08:32:30.879Z,21.52
2018-06-12T08:33:30.883Z,21.53
2018-06-12T08:34:30.891Z,21.75
2018-06-12T08:35:30.925Z,21.83
2018-06-12T08:36:30.895Z,21.67
2018-06-12T08:37:30.898Z,21.61
2018-06-12T08:38:30.897Z,21.75
2018-06-12T08:39:30.899Z,21.64
2018-06-12T08:40:30.906Z,21.63
2018-06-12T08:41:30.906Z,21.40
2018-06-12T08:42:30.914Z,21.45
2018-06-12T08:43:30.919Z,21.51
2018-06-12T08:44:30.916Z,21.27
2018-06-12T08:45:30.919Z,21.05
2018-06-12T08:46:30.993Z,21.09
2018-06-12T08:47:30.928Z,20.87
2018-06-12T08:48:30.930Z,21.11
2018-06-12T08:49:30.933Z,21.05
2018-06-12T08:50:30.933Z,21.05
2018-06-12T08:51:30.934Z,21.08
2018-06-12T08:52:30.937Z,21.03
2018-06-12T08:53:30.940Z,21.11
2018-06-12T08:54:30.948Z,20.96
2018-06-12T08:55:30.949Z,20.60
2018-06-12T08:56:30.955Z,20.73
2018-06-12T08:57:30.959Z,20.85
2018-06-12T08:58:30.957Z,20.96
2018-06-12T08:59:30.956Z,21.13
2018-06-12T09:00:30.963Z,21.37
2018-06-12T09:01:30.969Z,21.51
2018-06-12T09:02:30.964Z,21.71
2018-06-12T09:03:30.965Z,21.86
2018-06-12T09:04:30.971Z,22.02
2018-06-12T09:05:30.971Z,21.73
2018-06-12T09:06:30.978Z,21.74
2018-06-12T09:07:30.980Z,21.34
2018-06-12T09:08:30.983Z,21.28
2018-06-12T09:09:30.987Z,21.40
2018-06-12T09:10:30.985Z,21.67
2018-06-12T09:11:30.988Z,21.81
2018-06-12T09:12:30.990Z,21.96
2018-06-12T09:13:30.995Z,21.93
2018-06-12T09:14:31.002Z,21.91
2018-06-12T09:15:31.008Z,22.17
2018-06-12T09:16:31.002Z,22.29
2018-06-12T09:17:31.007Z,22.41
2018-06-12T09:18:31.016Z,22.33
2018-06-12T09:19:31.016Z,22.69
2018-06-12T09:20:31.020Z,23.34
2018-06-12T09:21:31.021Z,23.25
2018-06-12T09:22:31.029Z,22.96
2018-06-12T09:23:31.023Z,23.18
2018-06-12T09:24:31.028Z,23.71
2018-06-12T09:25:31.032Z,24.00
2018-06-12T09:26:31.040Z,24.05
2018-06-12T09:27:31.044Z,23.99
2018-06-12T09:28:31.058Z,23.21
2018-06-12T09:29:31.053Z,22.86
2018-06-12T09:30:31.053Z,22.72
2018-06-12T09:31:31.058Z,22.89
2018-06-12T09:32:31.066Z,23.37
2018-06-12T09:33:31.075Z,23.62
2018-06-12T09:34:31.072Z,24.15
2018-06-12T09:35:31.077Z,24.49
2018-06-12T09:36:31.081Z,24.63
2018-06-12T09:37:31.087Z,24.87
2018-06-12T09:38:31.096Z,25.16
2018-06-12T09:39:31.101Z,24.75
2018-06-12T09:40:31.108Z,24.31
2018-06-12T09:41:31.113Z,24.16
2018-06-12T09:42:31.113Z,24.21
2018-06-12T09:43:31.121Z,23.60
2018-06-12T09:44:31.129Z,23.77
2018-06-12T09:45:31.131Z,23.72
2018-06-12T09:46:31.143Z,23.63
2018-06-12T09:47:31.146Z,23.79
2018-06-12T09:48:31.149Z,24.21
2018-06-12T09:49:31.157Z,24.33
2018-06-12T09:50:31.164Z,24.27
2018-06-12T09:51:31.169Z,24.24
2018-06-12T09:52:31.176Z,24.31
2018-06-12T09:53:31.182Z,24.44
2018-06-12T09:54:31.183Z,24.16
2018-06-12T09:55:31.196Z,23.92
2018-06-12T09:56:31.192Z,23.81
2018-06-12T09:57:31.198Z,23.71
2018-06-12T09:58:31.210Z,23.47
2018-06-12T09:59:31.214Z,23.26
2018-06-12T10:00:31.221Z,23.00
2018-06-12T10:01:31.225Z,23.34
2018-06-12T10:02:31.225Z,23.12
2018-06-12T10:03:31.231Z,23.06
2018-06-12T10:04:31.238Z,23.42
2018-06-12T10:05:31.244Z,23.64
2018-06-12T10:06:31.247Z,24.00
2018-06-12T10:07:31.248Z,24.05
2018-06-12T10:08:31.255Z,23.86
2018-06-12T10:09:31.259Z,23.60
2018-06-12T10:10:31.271Z,23.64
2018-06-12T10:11:31.274Z,23.72
2018-06-12T10:12:31.282Z,23.86
2018-06-12T10:13:31.283Z,23.63
2018-06-12T10:14:31.283Z,23.57
2018-06-12T10:15:31.287Z,23.52
2018-06-12T10:16:31.292Z,23.57
2018-06-12T10:17:31.296Z,23.47
2018-06-12T10:18:31.305Z,23.18
2018-06-12T10:19:31.310Z,23.14
2018-06-12T10:20:31.310Z,23.19
2018-06-12T10:21:31.314Z,23.04
2018-06-12T10:22:31.324Z,23.15
2018-06-12T10:23:31.327Z,23.41
2018-06-12T10:24:31.333Z,23.45
2018-06-12T10:25:31.337Z,23.74
2018-06-12T10:26:31.336Z,23.57
2018-06-12T10:27:31.340Z,23.54
2018-06-12T10:28:31.344Z,23.06
2018-06-12T10:29:31.349Z,23.21
2018-06-12T10:30:31.361Z,22.96
2018-06-12T10:31:31.362Z,22.94
2018-06-12T10:32:31.369Z,22.64
2018-06-12T10:33:31.370Z,22.84
2018-06-12T10:34:31.374Z,22.88
2018-06-12T10:35:31.374Z,22.85
2018-06-12T10:36:31.383Z,23.19
2018-06-12T10:37:31.392Z,23.42
2018-06-12T10:38:31.389Z,23.16
2018-06-12T10:39:31.392Z,22.61
2018-06-12T10:40:31.395Z,22.64
2018-06-12T10:41:31.400Z,22.93
2018-06-12T10:42:31.409Z,23.18
2018-06-12T10:43:31.413Z,23.42
2018-06-12T10:44:31.438Z,23.44
2018-06-12T10:45:31.415Z,23.57
2018-06-12T10:46:31.425Z,23.86
2018-06-12T10:47:31.429Z,23.99
2018-06-12T10:48:31.436Z,24.21
2018-06-12T10:49:31.437Z,24.30
2018-06-12T10:50:31.437Z,24.37
2018-06-12T10:51:31.441Z,24.29
2018-06-12T10:52:31.452Z,24.19
2018-06-12T10:53:31.455Z,23.93
2018-06-12T10:54:31.456Z,23.89
2018-06-12T10:55:31.459Z,24.11
2018-06-12T10:56:31.478Z,23.96
2018-06-12T10:57:31.469Z,23.39
2018-06-12T10:58:31.481Z,23.54
2018-06-12T10:59:31.481Z,23.52
2018-06-12T11:00:31.487Z,23.60
2018-06-12T11:01:31.491Z,23.82
2018-06-12T11:02:31.492Z,24.04
2018-06-12T11:03:31.522Z,24.05
2018-06-12T11:04:31.501Z,24.08
2018-06-12T11:05:31.506Z,24.11
2018-06-12T11:06:31.516Z,24.30
2018-06-12T11:07:31.520Z,24.51
2018-06-12T11:08:31.520Z,23.92
2018-06-12T11:09:31.525Z,23.38
2018-06-12T11:10:31.534Z,23.38
2018-06-12T11:11:31.539Z,23.41
2018-06-12T11:12:31.542Z,23.49
2018-06-12T11:13:31.547Z,23.41
2018-06-12T11:14:31.552Z,23.39
2018-06-12T11:15:31.552Z,23.26
2018-06-12T11:16:31.556Z,23.38
2018-06-12T11:17:31.561Z,23.59
2018-06-12T11:18:31.574Z,23.52
2018-06-12T11:19:31.574Z,23.44
2018-06-12T11:20:31.580Z,23.63
2018-06-12T11:21:31.584Z,23.77
2018-06-12T11:22:31.587Z,23.52
2018-06-12T11:23:31.587Z,23.15
2018-06-12T11:24:31.596Z,23.09
2018-06-12T11:25:31.602Z,23.01
2018-06-12T11:26:31.607Z,23.29
2018-06-12T11:27:31.605Z,23.29
2018-06-12T11:28:31.609Z,23.44
2018-06-12T11:29:31.613Z,23.22
2018-06-12T11:30:31.622Z,23.35
2018-06-12T11:31:31.625Z,23.53
2018-06-12T11:32:31.630Z,23.93
2018-06-12T11:33:31.637Z,24.09
2018-06-12T11:34:31.635Z,24.11
2018-06-12T11:35:31.638Z,24.06
2018-06-12T11:36:31.642Z,24.12
2018-06-12T11:37:31.647Z,24.05
2018-06-12T11:38:31.658Z,24.04
2018-06-12T11:39:31.659Z,24.19
2018-06-12T11:40:31.660Z,24.51
2018-06-12T11:41:31.665Z,24.52
2018-06-12T11:42:31.673Z,24.61
2018-06-12T11:43:31.677Z,24.75
2018-06-12T11:44:31.681Z,24.98
2018-06-12T11:45:31.686Z,25.29
2018-06-12T11:46:31.685Z,25.46
2018-06-12T11:47:31.692Z,25.74
2018-06-12T11:48:31.697Z,25.96
2018-06-12T11:49:31.700Z,26.01
2018-06-12T11:50:31.710Z,25.81
2018-06-12T11:51:31.713Z,25.14
2018-06-12T11:52:31.717Z,24.68
2018-06-12T11:53:31.722Z,24.18
2018-06-12T11:54:31.730Z,23.97
2018-06-12T11:55:31.727Z,23.47
2018-06-12T11:56:31.740Z,23.25
2018-06-12T11:57:31.743Z,23.23
2018-06-12T11:58:31.741Z,23.38
2018-06-12T11:59:31.744Z,23.60
2018-06-12T12:00:31.750Z,23.75
2018-06-12T12:01:31.753Z,23.47
2018-06-12T12:02:31.765Z,23.38
2018-06-12T12:03:31.767Z,23.41
2018-06-12T12:04:31.770Z,23.11
2018-06-12T12:05:31.783Z,23.00
2018-06-12T12:06:31.774Z,23.11
2018-06-12T12:07:31.776Z,23.16
2018-06-12T12:08:31.780Z,23.16
2018-06-12T12:09:31.790Z,23.21
2018-06-12T12:10:31.793Z,23.39
2018-06-12T12:11:31.799Z,23.41
2018-06-12T12:12:31.794Z,23.50
2018-06-12T12:13:31.800Z,23.47
2018-06-12T12:14:31.806Z,23.42
2018-06-12T12:15:31.809Z,23.56
2018-06-12T12:16:31.814Z,23.56
2018-06-12T12:17:31.816Z,23.56
2018-06-12T12:18:31.816Z,23.74
2018-06-12T12:19:31.818Z,23.89
2018-06-12T12:20:31.821Z,23.54
2018-06-12T12:21:31.825Z,23.37
2018-06-12T12:22:31.833Z,23.47
2018-06-12T12:23:31.836Z,23.44
2018-06-12T12:24:31.838Z,23.41
2018-06-12T12:25:31.845Z,23.35
2018-06-12T12:26:31.842Z,23.41
2018-06-12T12:27:31.845Z,23.52
2018-06-12T12:28:31.855Z,23.39
2018-06-12T12:29:31.861Z,23.52
2018-06-12T12:30:31.852Z,23.64
2018-06-12T12:31:31.855Z,23.53
2018-06-12T12:32:31.859Z,23.44
2018-06-12T12:33:31.865Z,23.44
2018-06-12T12:34:31.872Z,23.41
2018-06-12T12:35:31.872Z,23.32
2018-06-12T12:36:31.874Z,23.21
2018-06-12T12:37:31.878Z,23.14
2018-06-12T12:38:31.878Z,23.04
2018-06-12T12:39:31.877Z,22.94
2018-06-12T12:40:31.882Z,22.96
2018-06-12T12:41:31.884Z,22.97
2018-06-12T12:42:31.892Z,22.82
2018-06-12T12:43:31.899Z,22.79
2018-06-12T12:44:31.891Z,22.86
2018-06-12T12:45:31.894Z,22.85
2018-06-12T12:46:31.904Z,23.00
2018-06-12T12:47:31.903Z,22.86
2018-06-12T12:48:31.907Z,22.89
2018-06-12T12:49:31.910Z,22.85
2018-06-12T12:50:31.913Z,22.89
2018-06-12T12:51:31.909Z,22.82
2018-06-12T12:52:31.912Z,22.93
2018-06-12T12:53:31.916Z,22.79
2018-06-12T12:54:31.922Z,22.84
2018-06-12T12:55:31.923Z,22.79